Time;durP1;ratioP1;P1;durP2;ratioP2;P2;SDS_P1;SDS_P2;PMS_P1;PMS_P2;Temp;Humidity;BMP_temperature;BMP_pressure;BME280_temperature;BME280_humidity;BME280_pressure;Samples;Min_cycle;Max_cycle;Signal;HPM_P1;HPM_P2
2021/05/11 00:00:57;;;;;;;6.87;2.40;;;;;;;15.09;40.84;95404.25;5068911;28;20439;-65
2021/05/11 00:03:23;;;;;;;4.50;2.43;;;;;;;15.06;41.27;95410.06;5063879;28;20814;-65
2021/05/11 00:05:49;;;;;;;4.80;2.23;;;;;;;15.11;41.27;95407.41;5058331;28;20908;-67
2021/05/11 00:08:16;;;;;;;2.70;2.10;;;;;;;15.11;40.69;95407.41;5055978;28;20499;-65
2021/05/11 00:10:42;;;;;;;3.70;2.07;;;;;;;15.00;41.31;95400.59;5072276;28;20517;-66
2021/05/11 00:13:09;;;;;;;5.40;2.27;;;;;;;15.04;41.05;95395.56;5070680;28;20513;-66
2021/05/11 00:15:35;;;;;;;3.93;2.27;;;;;;;15.01;41.33;95402.19;5044680;28;21034;-66
2021/05/11 00:18:01;;;;;;;5.10;2.30;;;;;;;15.04;41.34;95396.34;5066539;28;20870;-66
2021/05/11 00:20:28;;;;;;;2.60;1.97;;;;;;;14.98;41.33;95397.41;5064812;28;20509;-65
2021/05/11 00:22:54;;;;;;;3.97;2.30;;;;;;;14.96;41.22;95394.25;5051221;28;20451;-64
2021/05/11 00:25:21;;;;;;;5.03;2.17;;;;;;;15.01;41.23;95402.19;5070758;28;20780;-65
2021/05/11 00:27:47;;;;;;;2.83;2.10;;;;;;;14.93;42.02;95400.09;5066330;28;20443;-66
2021/05/11 00:30:14;;;;;;;3.50;2.40;;;;;;;14.97;41.80;95401.13;5054455;28;20426;-66
2021/05/11 00:32:40;;;;;;;2.73;2.20;;;;;;;14.89;41.92;95399.03;5060658;28;20963;-66
2021/05/11 00:35:07;;;;;;;3.80;2.30;;;;;;;14.90;41.62;95398.00;5052901;28;20442;-66
2021/05/11 00:37:36;;;;;;;3.17;2.00;;;;;;;14.84;42.45;95390.34;5062690;28;20542;-66
2021/05/11 00:40:08;;;;;;;5.77;2.23;;;;;;;14.85;42.44;95398.00;5050663;28;20438;-65
2021/05/11 00:42:35;;;;;;;4.83;2.33;;;;;;;14.81;42.22;95391.69;5051109;28;20443;-66
2021/05/11 00:45:05;;;;;;;3.23;2.33;;;;;;;14.76;42.64;95396.97;5051066;28;20478;-67
2021/05/11 00:47:32;;;;;;;3.73;2.50;;;;;;;14.69;42.42;95383.28;5051432;28;20451;-66
2021/05/11 00:49:59;;;;;;;3.80;2.03;;;;;;;14.55;43.01;95386.75;5063228;28;21072;-68
2021/05/11 00:52:26;;;;;;;3.87;2.20;;;;;;;14.56;43.09;95394.38;5069851;28;20865;-66
2021/05/11 00:54:53;;;;;;;8.10;2.63;;;;;;;14.54;42.63;95396.53;5071173;28;20478;-65
2021/05/11 00:57:20;;;;;;;4.27;2.07;;;;;;;14.45;42.95;95387.56;5070381;28;20499;-65
2021/05/11 00:59:48;;;;;;;6.57;2.10;;;;;;;14.43;42.73;95383.63;5060555;28;20814;-66
2021/05/11 01:02:15;;;;;;;4.43;2.10;;;;;;;14.47;42.99;95387.31;5049783;28;21257;-65
2021/05/11 01:04:41;;;;;;;3.30;1.90;;;;;;;14.34;43.31;95386.03;5050789;28;20886;-66
2021/05/11 01:07:08;;;;;;;3.90;2.07;;;;;;;14.35;43.26;95390.22;5060219;28;20441;-67
2021/05/11 01:09:34;;;;;;;4.40;2.07;;;;;;;14.14;43.45;95351.75;5069388;28;20435;-64
2021/05/11 01:12:01;;;;;;;4.53;2.00;;;;;;;14.29;43.23;95372.81;5058468;28;20473;-66
2021/05/11 01:14:29;;;;;;;5.10;2.00;;;;;;;14.25;43.48;95372.53;5070794;28;21046;-64
2021/05/11 01:17:00;;;;;;;4.63;2.10;;;;;;;14.16;43.42;95378.59;5071062;28;20529;-68
2021/05/11 01:19:42;;;;;;;2.30;2.10;;;;;;;14.19;43.49;95378.91;5074302;28;20446;-64
2021/05/11 01:24:57;;;;;;;2.70;1.80;;;;;;;14.16;43.63;95373.34;5052936;28;20907;-65
2021/05/11 01:50:04;;;;;;;4.73;1.80;;;;;;;14.09;43.01;95362.28;5052158;28;20508;-65
2021/05/11 02:24:47;;;;;;;3.23;1.50;;;;;;;13.59;44.70;95351.78;5055351;28;20501;-66
2021/05/11 02:27:14;;;;;;;2.83;1.57;;;;;;;13.60;44.94;95348.88;5062165;28;20442;-65
2021/05/11 02:29:40;;;;;;;3.80;1.80;;;;;;;13.54;45.03;95351.78;5049812;28;20967;-65
2021/05/11 02:32:07;;;;;;;3.73;1.70;;;;;;;13.50;45.25;95337.53;5050781;28;20897;-66
2021/05/11 02:34:33;;;;;;;4.33;2.00;;;;;;;13.52;45.17;95338.84;5058525;28;20537;-66
2021/05/11 02:37:00;;;;;;;3.23;1.90;;;;;;;13.47;45.05;95338.06;5051884;28;20931;-63
2021/05/11 02:39:26;;;;;;;2.23;1.80;;;;;;;13.43;45.21;95337.78;5070084;28;20445;-66
2021/05/11 02:41:53;;;;;;;5.03;1.90;;;;;;;13.35;45.25;95334.88;5055595;28;20439;-65
2021/05/11 02:44:20;;;;;;;5.50;1.87;;;;;;;13.33;45.13;95337.00;5063578;28;20471;-65
2021/05/11 02:46:47;;;;;;;4.03;1.73;;;;;;;13.23;45.14;95346.44;5054016;28;20557;-67
2021/05/11 02:49:17;;;;;;;3.53;2.00;;;;;;;13.26;45.71;95331.19;5057455;28;20501;-66
2021/05/11 02:51:43;;;;;;;2.77;1.83;;;;;;;13.26;45.67;95342.53;5060830;28;20435;-66
2021/05/11 02:54:11;;;;;;;3.33;2.13;;;;;;;13.46;45.42;95341.75;5070924;28;20497;-66
2021/05/11 02:56:38;;;;;;;9.03;2.30;;;;;;;13.30;45.99;95337.53;5072871;28;20838;-66
2021/05/11 02:59:04;;;;;;;5.20;2.27;;;;;;;13.36;45.94;95336.50;5054167;28;20474;-67
2021/05/11 03:01:33;;;;;;;3.87;1.93;;;;;;;13.26;45.84;95325.94;5053027;28;21025;-66
2021/05/11 03:04:00;;;;;;;9.37;2.20;;;;;;;13.33;45.71;95326.47;5051965;28;20550;-66
2021/05/11 03:06:26;;;;;;;3.27;2.23;;;;;;;13.46;45.95;95337.28;5056666;28;20437;-66
2021/05/11 03:08:54;;;;;;;4.23;2.40;;;;;;;13.51;46.21;95334.66;5053000;28;21014;-65
2021/05/11 03:11:20;;;;;;;2.97;2.10;;;;;;;13.47;45.80;95328.31;5053081;28;20522;-65
2021/05/11 03:13:47;;;;;;;3.67;2.80;;;;;;;13.42;45.79;95335.41;5060560;28;20998;-66
2021/05/11 03:16:13;;;;;;;4.70;2.30;;;;;;;13.46;45.65;95332.03;5058600;28;20519;-65
2021/05/11 03:18:42;;;;;;;5.13;2.20;;;;;;;13.34;45.74;95307.00;5065981;28;20446;-66
2021/05/11 03:21:09;;;;;;;5.67;1.90;;;;;;;13.28;45.95;95329.09;5044252;28;20538;-67
2021/05/11 03:23:36;;;;;;;4.73;2.13;;;;;;;13.35;46.13;95338.31;5056758;28;20856;-65
2021/05/11 03:26:02;;;;;;;6.07;2.30;;;;;;;13.48;46.31;95334.38;5061006;28;20439;-65
2021/05/11 03:28:29;;;;;;;5.63;2.50;;;;;;;13.53;46.42;95337.00;5055620;28;21046;-67
2021/05/11 03:30:55;;;;;;;8.03;2.13;;;;;;;13.37;46.36;95333.59;5072914;28;20434;-65
2021/05/11 03:33:22;;;;;;;8.40;3.00;;;;;;;13.31;46.60;95333.81;5051711;28;20490;-66
2021/05/11 03:35:48;;;;;;;6.47;3.10;;;;;;;13.35;46.26;95330.44;5072589;28;20943;-67
2021/05/11 03:38:15;;;;;;;10.50;3.00;;;;;;;13.38;46.29;95335.16;5058407;28;20479;-67
2021/05/11 03:40:41;;;;;;;5.80;2.83;;;;;;;13.26;46.87;95337.25;5071775;28;20442;-66
2021/05/11 03:43:12;;;;;;;9.70;3.23;;;;;;;13.28;46.71;95340.41;5042226;28;20457;-68
2021/05/11 03:45:43;;;;;;;9.67;3.57;;;;;;;13.28;46.31;95339.63;5051748;28;20972;-68
2021/05/11 03:48:10;;;;;;;7.07;2.97;;;;;;;13.23;46.69;95342.25;5052021;28;20546;-66
2021/05/11 03:50:37;;;;;;;6.00;3.30;;;;;;;13.07;46.58;95318.53;5066059;28;20554;-66
2021/05/11 03:53:04;;;;;;;7.73;3.50;;;;;;;13.28;46.25;95335.16;5069761;28;21070;-66
2021/05/11 03:55:31;;;;;;;7.60;3.60;;;;;;;13.23;46.77;95334.34;5064632;28;20440;-66
2021/05/11 03:57:58;;;;;;;5.27;3.53;;;;;;;13.33;46.79;95342.25;5062833;28;20477;-66
2021/05/11 04:00:25;;;;;;;6.43;4.50;;;;;;;13.33;46.56;95334.34;5047393;28;20472;-68
2021/05/11 04:02:52;;;;;;;7.07;4.03;;;;;;;13.08;46.55;95338.50;5064003;28;20439;-67
2021/05/11 04:05:26;;;;;;;7.40;3.63;;;;;;;13.12;46.77;95342.22;5061788;28;20500;-66
2021/05/11 04:07:59;;;;;;;11.90;3.93;;;;;;;13.23;46.58;95341.19;5064032;28;20441;-65
2021/05/11 04:13:13;;;;;;;8.30;3.90;;;;;;;13.25;46.96;95340.16;5056518;28;21106;-65
2021/05/11 04:18:26;;;;;;;6.43;4.40;;;;;;;13.47;46.71;95338.84;5067659;28;21032;-69
2021/05/11 04:20:53;;;;;;;11.10;4.10;;;;;;;13.58;46.87;95343.06;5051763;28;20517;-68
2021/05/11 04:23:20;;;;;;;7.03;3.90;;;;;;;13.64;46.50;95346.50;5058554;28;20540;-66
2021/05/11 04:25:47;;;;;;;7.73;4.47;;;;;;;13.76;46.29;95339.91;5057721;28;21063;-67
2021/05/11 04:28:14;;;;;;;11.07;4.47;;;;;;;13.41;47.09;95339.88;5051758;28;20439;-68
2021/05/11 04:30:41;;;;;;;14.40;4.90;;;;;;;13.53;46.71;95342.28;5067006;28;20985;-64
2021/05/11 04:33:08;;;;;;;6.77;4.30;;;;;;;13.44;46.79;95333.31;5057296;28;20494;-66
2021/05/11 04:35:34;;;;;;;7.90;4.50;;;;;;;13.54;46.67;95338.59;5054303;28;20439;-64
2021/05/11 04:38:01;;;;;;;17.00;4.60;;;;;;;13.57;46.61;95338.06;5055676;28;20465;-64
2021/05/11 04:40:28;;;;;;;9.40;4.43;;;;;;;13.60;46.77;95329.63;5059338;28;20457;-66
2021/05/11 04:42:56;;;;;;;11.00;4.73;;;;;;;13.75;46.32;95334.91;5058870;28;20449;-65
2021/05/11 04:45:26;;;;;;;13.77;4.30;;;;;;;13.81;46.66;95324.09;5066528;28;20444;-64
2021/05/11 04:47:54;;;;;;;72.73;46.40;;;;;;;13.96;46.83;95331.19;5048930;28;20852;-72
2021/05/11 04:50:23;;;;;;;40.90;30.57;;;;;;;14.03;47.51;95331.75;5060751;28;20979;-70
2021/05/11 04:52:51;;;;;;;31.17;8.37;;;;;;;13.90;47.66;95332.28;5066935;28;20629;-65
2021/05/11 04:55:19;;;;;;;16.40;5.13;;;;;;;13.90;47.45;95329.66;5066747;28;20435;-69
2021/05/11 04:57:46;;;;;;;9.10;4.97;;;;;;;13.82;47.87;95325.69;5052188;28;20447;-68
2021/05/11 05:00:15;;;;;;;13.43;5.27;;;;;;;13.98;48.08;95324.63;5060484;28;20431;-68
2021/05/11 05:02:49;;;;;;;9.67;5.00;;;;;;;14.07;48.12;95324.88;5062725;28;20548;-68
2021/05/11 05:05:16;;;;;;;18.33;5.50;;;;;;;14.30;47.76;95316.44;5055656;28;20442;-70
2021/05/11 05:07:43;;;;;;;18.17;5.63;;;;;;;14.30;47.43;95321.69;5058705;28;20474;-67
2021/05/11 05:10:12;;;;;;;11.20;6.00;;;;;;;14.17;47.12;95320.38;5065534;28;20446;-67
2021/05/11 05:12:47;;;;;;;135.67;105.73;;;;;;;14.24;46.09;95322.72;5060036;28;20438;-65
2021/05/11 05:15:15;;;;;;;114.33;91.20;;;;;;;14.31;46.09;95318.00;5058048;28;20499;-66
2021/05/11 05:17:42;;;;;;;13.27;9.70;;;;;;;14.34;46.53;95312.22;5053866;28;20431;-66
2021/05/11 05:20:10;;;;;;;13.33;10.07;;;;;;;14.45;46.31;95324.28;5062871;28;20439;-65
2021/05/11 05:22:37;;;;;;;13.30;6.33;;;;;;;14.40;46.53;95319.03;5056325;28;20439;-64
2021/05/11 05:25:26;;;;;;;16.33;5.60;;;;;;;14.48;46.33;95318.47;5053273;28;20909;-64
2021/05/11 05:30:21;;;;;;;11.87;5.53;;;;;;;13.92;46.48;95317.78;5071047;28;20441;-65
2021/05/11 05:32:48;;;;;;;17.40;6.63;;;;;;;14.14;46.17;95317.50;5057854;28;20446;-65
2021/05/11 05:35:16;;;;;;;11.10;6.23;;;;;;;14.29;45.83;95314.84;5067462;28;20956;-64
2021/05/11 05:37:43;;;;;;;16.73;5.77;;;;;;;14.41;46.42;95312.72;5065171;28;20462;-66
2021/05/11 05:40:12;;;;;;;13.77;5.90;;;;;;;14.66;46.05;95309.97;5065207;28;20439;-64
2021/05/11 05:42:39;;;;;;;19.50;6.23;;;;;;;14.89;45.99;95311.97;5070131;28;20529;-64
2021/05/11 05:45:07;;;;;;;15.47;6.40;;;;;;;14.96;45.93;95309.81;5061469;28;20449;-65
2021/05/11 05:47:34;;;;;;;14.00;6.70;;;;;;;14.73;47.14;95305.19;5054168;28;20474;-65
2021/05/11 05:50:05;;;;;;;14.03;6.27;;;;;;;14.37;46.28;95301.13;5059090;28;20531;-65
2021/05/11 05:52:38;;;;;;;13.17;6.03;;;;;;;14.50;46.89;95305.03;5069049;28;20442;-66
2021/05/11 05:55:06;;;;;;;13.57;6.40;;;;;;;14.61;47.80;95302.09;5066450;28;20485;-64
2021/05/11 05:57:33;;;;;;;13.97;6.43;;;;;;;14.86;46.76;95306.44;5062140;28;20529;-65
2021/05/11 06:00:00;;;;;;;21.47;6.50;;;;;;;14.74;46.56;95288.31;5050623;28;20443;-65
2021/05/11 06:02:27;;;;;;;11.77;6.60;;;;;;;15.01;45.18;95301.91;5067498;28;20456;-65
2021/05/11 06:04:54;;;;;;;11.27;6.80;;;;;;;15.16;45.35;95295.72;5065240;28;20470;-63
2021/05/11 06:07:21;;;;;;;11.93;6.60;;;;;;;15.01;45.98;95301.91;5060524;28;20962;-66
2021/05/11 06:09:49;;;;;;;11.70;6.40;;;;;;;15.38;45.82;95309.31;5070376;28;20446;-64
2021/05/11 06:12:23;;;;;;;10.67;6.57;;;;;;;15.13;46.93;95299.69;5069564;28;20440;-65
2021/05/11 06:17:27;;;;;;;12.63;7.17;;;;;;;15.31;46.74;95300.13;5050023;28;20447;-66
2021/05/11 06:19:55;;;;;;;12.27;6.47;;;;;;;15.21;46.87;95291.22;5053474;28;20882;-65
2021/05/11 06:22:22;;;;;;;13.90;6.67;;;;;;;15.39;45.82;95287.13;5059229;28;20438;-64
2021/05/11 06:24:49;;;;;;;9.67;6.47;;;;;;;15.49;45.86;95294.22;5072731;28;20452;-66
2021/05/11 06:27:16;;;;;;;14.47;6.80;;;;;;;15.61;46.19;95292.00;5061163;28;20564;-64
2021/05/11 06:29:45;;;;;;;24.60;6.77;;;;;;;15.70;46.04;95292.97;5074398;28;20827;-65
2021/05/11 06:32:13;;;;;;;13.43;6.50;;;;;;;15.74;46.40;95289.53;5067293;28;20439;-65
2021/05/11 06:34:47;;;;;;;11.17;6.63;;;;;;;15.91;45.64;95294.38;5054094;28;20477;-64
2021/05/11 06:37:14;;;;;;;13.20;6.20;;;;;;;16.11;45.57;95289.69;5067199;28;20492;-65
2021/05/11 06:39:45;;;;;;;14.73;6.80;;;;;;;16.19;44.13;95285.63;5065470;28;20442;-65
2021/05/11 06:42:12;;;;;;;16.83;6.53;;;;;;;15.96;44.84;95291.69;5072708;28;20520;-65
2021/05/11 06:45:04;;;;;;;16.80;7.37;;;;;;;16.17;45.44;95285.13;5073348;28;20541;-64
2021/05/11 06:47:56;;;;;;;10.60;5.87;;;;;;;16.18;44.97;95281.44;5067414;28;20850;-67
2021/05/11 06:50:42;;;;;;;11.40;6.20;;;;;;;16.36;44.89;95283.34;5053588;28;20536;-64
2021/05/11 06:55:39;;;;;;;11.80;5.90;;;;;;;16.40;43.27;95275.63;5072109;28;20444;-65
2021/05/11 06:58:07;;;;;;;8.03;4.93;;;;;;;16.82;43.40;95276.44;5064500;28;20521;-65
2021/05/11 07:00:34;;;;;;;17.57;5.27;;;;;;;17.05;43.61;95272.97;5072953;28;20833;-63
2021/05/11 07:03:01;;;;;;;13.13;4.90;;;;;;;16.93;44.18;95269.19;5063512;28;20496;-67
2021/05/11 07:05:31;;;;;;;9.40;4.70;;;;;;;17.05;43.39;95266.88;5059438;28;20438;-66
2021/05/11 07:08:25;;;;;;;12.17;5.87;;;;;;;16.85;42.44;95273.25;5066576;28;20469;-66
2021/05/11 07:10:53;;;;;;;11.67;5.40;;;;;;;17.05;41.60;95272.19;5052895;28;20443;-65
2021/05/11 07:13:25;;;;;;;12.27;5.27;;;;;;;17.14;41.33;95265.16;5050346;28;20478;-65
2021/05/11 07:15:53;;;;;;;11.23;5.50;;;;;;;17.08;41.03;95259.16;5064200;28;20434;-66
2021/05/11 07:18:25;;;;;;;14.50;5.37;;;;;;;17.27;42.00;95263.66;5069124;28;20793;-65
2021/05/11 07:20:57;;;;;;;12.47;5.27;;;;;;;17.32;42.36;95266.25;5053128;28;20573;-66
2021/05/11 07:23:25;;;;;;;14.57;5.50;;;;;;;17.27;42.34;95248.56;5055998;28;20450;-67
2021/05/11 07:26:05;;;;;;;23.30;5.30;;;;;;;17.54;40.81;95253.97;5063620;28;20439;-64
2021/05/11 07:31:06;;;;;;;7.93;4.43;;;;;;;17.49;42.33;95240.81;5062870;28;20538;-67
2021/05/11 07:33:41;;;;;;;6.07;4.50;;;;;;;17.91;41.81;95237.97;5051921;28;20475;-65
2021/05/11 07:36:09;;;;;;;16.40;4.60;;;;;;;18.17;40.75;95233.00;5052194;28;20442;-66
2021/05/11 07:38:36;;;;;;;16.57;4.73;;;;;;;18.27;40.83;95240.75;5054813;28;20447;-66
2021/05/11 07:41:05;;;;;;;7.40;4.67;;;;;;;18.18;40.24;95234.56;5073085;28;20820;-65
2021/05/11 07:43:35;;;;;;;10.20;4.67;;;;;;;18.18;40.22;95216.00;5071029;28;20452;-65
2021/05/11 08:02:05;;;;;;;14.97;4.10;;;;;;;18.98;40.38;95211.69;5066094;28;20492;-67
2021/05/11 08:05:21;;;;;;;11.90;4.93;;;;;;;18.90;38.39;95207.06;5070499;28;20441;-67
2021/05/11 08:15:51;;;;;;;6.83;3.53;;;;;;;19.42;37.45;95191.56;5065423;28;20438;-66
2021/05/11 08:18:35;;;;;;;10.23;3.60;;;;;;;19.68;37.58;95190.66;5071791;28;20545;-67
2021/05/11 08:29:06;;;;;;;6.93;3.17;;;;;;;19.90;38.43;95192.47;5063023;28;20457;-65
2021/05/11 08:31:33;;;;;;;6.43;3.83;;;;;;;20.12;37.69;95189.75;5065453;28;20242;-66
2021/05/11 08:34:00;;;;;;;6.63;3.17;;;;;;;20.06;37.03;95175.00;5051341;28;20289;-65
2021/05/11 08:36:27;;;;;;;9.90;3.37;;;;;;;20.23;38.55;95171.66;5064368;28;20191;-66
2021/05/11 08:38:58;;;;;;;6.97;3.07;;;;;;;20.41;37.51;95181.25;5051262;28;20200;-65
2021/05/11 08:41:25;;;;;;;9.63;3.10;;;;;;;20.31;36.69;95181.56;5063275;28;20196;-66
2021/05/11 08:43:52;;;;;;;5.40;2.50;;;;;;;20.36;35.83;95173.41;5067391;28;20726;-65
2021/05/11 08:46:19;;;;;;;11.97;3.37;;;;;;;20.42;37.35;95178.28;5061845;28;20629;-64
2021/05/11 08:48:48;;;;;;;6.07;2.83;;;;;;;20.68;36.26;95171.13;5054323;28;20194;-66
2021/05/11 08:51:26;;;;;;;9.23;3.10;;;;;;;20.82;37.41;95163.78;5051065;28;20262;-65
2021/05/11 09:54:38;;;;;;;13.10;2.53;;;;;;;23.64;28.69;95102.88;5064467;28;20277;-65
2021/05/11 10:48:36;;;;;;;5.47;1.50;;;;;;;26.12;26.70;95046.00;5044491;28;20204;-66
2021/05/11 10:51:28;;;;;;;5.03;1.80;;;;;;;26.47;26.96;95032.56;5051935;28;20224;-66
2021/05/11 10:54:07;;;;;;;9.67;1.70;;;;;;;26.51;24.36;95044.97;5068119;28;20262;-65
2021/05/11 10:56:43;;;;;;;6.23;1.20;;;;;;;26.73;22.31;95030.84;5069130;28;20577;-67
2021/05/11 11:01:56;;;;;;;2.97;0.93;;;;;;;26.31;21.18;95034.53;5058809;28;20625;-68
2021/05/11 11:04:32;;;;;;;4.50;1.07;;;;;;;26.65;22.24;95031.81;5073451;28;20208;-65
2021/05/11 11:07:06;;;;;;;2.07;1.67;;;;;;;26.77;23.01;95018.25;5057896;28;20200;-67
2021/05/11 11:09:36;;;;;;;8.90;1.57;;;;;;;26.78;22.84;95019.84;5070340;28;20196;-65
2021/05/11 11:12:06;;;;;;;5.13;1.10;;;;;;;26.83;22.60;95003.41;5064992;28;20189;-68
2021/05/11 11:14:40;;;;;;;10.90;1.20;;;;;;;26.70;21.70;95012.75;5066815;28;20216;-67
2021/05/11 11:17:09;;;;;;;2.10;0.70;;;;;;;26.81;20.40;95008.34;5060286;28;20210;-65
2021/05/11 11:19:37;;;;;;;4.40;1.50;;;;;;;26.69;20.97;95011.19;5058677;28;20196;-69
2021/05/11 11:24:54;;;;;;;2.10;0.80;;;;;;;26.97;21.03;95003.66;5068595;28;20196;-66
2021/05/11 11:27:29;;;;;;;3.60;0.73;;;;;;;27.00;20.84;94997.59;5072453;28;20219;-65
2021/05/11 11:30:05;;;;;;;5.30;1.00;;;;;;;27.54;21.07;95000.09;5072554;28;20285;-65
2021/05/11 11:32:34;;;;;;;2.47;0.80;;;;;;;27.55;20.09;94995.50;5072576;28;20257;-65
2021/05/11 11:35:03;;;;;;;1.23;0.70;;;;;;;27.30;21.05;94999.66;5057516;28;20227;-67
2021/05/11 11:37:31;;;;;;;1.10;0.80;;;;;;;27.42;21.44;94996.81;5059547;28;20269;-67
2021/05/11 11:40:02;;;;;;;2.53;1.00;;;;;;;27.40;22.20;94993.69;5072458;28;20286;-66
2021/05/11 11:42:39;;;;;;;2.23;1.00;;;;;;;27.33;22.11;94988.97;5052395;28;20236;-66
2021/05/11 11:45:23;;;;;;;2.70;1.00;;;;;;;27.46;22.35;94976.13;5052396;28;20220;-66
2021/05/11 11:47:56;;;;;;;4.53;1.10;;;;;;;27.67;21.43;94981.81;5060766;28;20265;-66
2021/05/11 11:50:23;;;;;;;2.67;1.00;;;;;;;27.53;21.71;94965.47;5072321;28;20224;-65
2021/05/11 11:57:58;;;;;;;3.63;0.93;;;;;;;27.81;20.70;94972.06;5061208;28;20199;-67
2021/05/11 12:00:34;;;;;;;3.20;1.00;;;;;;;27.65;20.69;94963.34;5070693;28;20198;-65
2021/05/11 12:03:10;;;;;;;5.37;1.00;;;;;;;27.66;20.03;94964.13;5060691;28;20223;-66
2021/05/11 12:05:44;;;;;;;3.93;1.07;;;;;;;27.96;20.90;94978.44;5055749;28;20278;-64
2021/05/11 12:08:21;;;;;;;6.07;1.27;;;;;;;28.04;19.97;94958.56;5055730;28;20203;-67
2021/05/11 12:10:53;;;;;;;1.03;0.93;;;;;;;28.25;19.10;94948.06;5060245;28;20646;-67
2021/05/11 12:13:32;;;;;;;2.30;1.27;;;;;;;28.35;19.56;94960.91;5055718;28;20640;-66
2021/05/11 12:16:28;;;;;;;2.10;0.90;;;;;;;28.01;19.29;94953.88;5071851;28;20234;-64
2021/05/11 12:19:23;;;;;;;3.40;0.93;;;;;;;27.95;19.93;94949.97;5055246;28;20200;-64
2021/05/11 12:21:50;;;;;;;2.23;0.90;;;;;;;28.30;19.11;94949.69;5066963;28;20206;-67
2021/05/11 12:24:19;;;;;;;12.17;1.20;;;;;;;28.37;19.28;94944.38;5051540;28;20615;-66
2021/05/11 12:26:46;;;;;;;3.83;0.97;;;;;;;28.55;20.18;94924.59;5053229;28;20201;-64
2021/05/11 12:29:32;;;;;;;6.77;1.13;;;;;;;28.58;19.70;94931.94;5051584;28;20207;-67
2021/05/11 12:31:58;;;;;;;4.30;0.80;;;;;;;28.69;18.81;94932.06;5055972;28;20189;-64
2021/05/11 12:34:27;;;;;;;10.53;1.60;;;;;;;28.33;20.45;94938.94;5061844;28;20196;-66
2021/05/11 12:36:58;;;;;;;7.63;1.27;;;;;;;28.72;21.62;94913.22;5064764;28;20191;-64
2021/05/11 12:42:13;;;;;;;8.20;1.10;;;;;;;28.69;22.07;94919.34;5053659;28;20204;-66
2021/05/11 12:44:40;;;;;;;3.13;1.23;;;;;;;28.48;21.65;94908.31;5071271;28;20210;-67
2021/05/11 12:47:09;;;;;;;3.80;1.30;;;;;;;28.84;22.78;94920.28;5053838;28;20196;-65
2021/05/11 12:49:36;;;;;;;5.73;1.40;;;;;;;28.90;21.69;94908.78;5051540;28;20796;-68
2021/05/11 12:52:07;;;;;;;6.00;1.00;;;;;;;28.59;22.33;94914.63;5065399;28;20677;-65
2021/05/11 12:57:26;;;;;;;1.73;1.00;;;;;;;28.81;21.31;94912.94;5058183;28;20284;-66
2021/05/11 13:00:16;;;;;;;8.23;1.40;;;;;;;28.52;21.17;94911.84;5071143;28;20192;-66
2021/05/11 13:03:06;;;;;;;3.90;1.10;;;;;;;28.95;21.61;94918.47;5070342;28;20286;-67
2021/05/11 13:35:35;;;;;;;3.63;1.10;;;;;;;29.31;19.49;94887.19;5050674;28;20314;-66
2021/05/11 13:38:04;;;;;;;6.40;1.90;;;;;;;29.39;20.40;94880.72;5050218;28;20265;-66
2021/05/11 13:40:31;;;;;;;5.20;1.50;;;;;;;29.63;20.05;94880.88;5054553;28;20199;-65
2021/05/11 13:42:59;;;;;;;6.10;1.50;;;;;;;29.23;20.06;94888.28;5059193;28;20249;-67
2021/05/11 13:45:26;;;;;;;2.53;1.23;;;;;;;29.54;19.50;94882.38;5067213;28;20200;-64
2021/05/11 13:50:54;;;;;;;2.40;1.40;;;;;;;29.68;19.39;94869.72;5069723;28;20733;-65
2021/05/11 13:53:16;;;;;;;2.20;1.10;;;;;;;29.54;18.83;94872.31;5061102;28;20258;-66
2021/05/11 14:03:48;;;;;;;2.27;1.70;;;;;;;29.71;19.33;94865.50;5049939;28;20735;-66
2021/05/11 14:06:15;;;;;;;2.73;1.23;;;;;;;29.62;18.76;94871.22;5050175;28;20199;-67
2021/05/11 14:08:42;;;;;;;4.10;1.40;;;;;;;29.16;19.18;94861.25;5058556;28;20219;-67
2021/05/11 14:11:09;;;;;;;3.77;1.63;;;;;;;29.35;19.35;94866.41;5069235;28;20257;-66
2021/05/11 14:13:36;;;;;;;5.57;1.30;;;;;;;29.46;19.02;94859.94;5049317;28;20246;-66
2021/05/11 14:16:04;;;;;;;2.83;1.30;;;;;;;29.02;19.68;94861.88;5049911;28;20286;-65
2021/05/11 14:18:31;;;;;;;5.63;1.50;;;;;;;29.59;19.46;94855.00;5049140;28;20197;-66
2021/05/11 14:20:58;;;;;;;6.77;1.57;;;;;;;29.53;19.40;94864.59;5050015;28;20568;-67
2021/05/11 14:23:25;;;;;;;4.77;1.50;;;;;;;29.60;19.48;94856.53;5067063;28;20227;-65
2021/05/11 14:25:53;;;;;;;4.73;1.70;;;;;;;29.86;20.27;94859.03;5069772;28;20286;-68
2021/05/11 14:28:20;;;;;;;3.63;1.30;;;;;;;30.01;19.68;94852.56;5064268;28;20689;-65
2021/05/11 14:30:47;;;;;;;7.53;1.60;;;;;;;30.12;19.86;94842.56;5061348;28;20290;-65
2021/05/11 14:33:14;;;;;;;6.47;1.40;;;;;;;29.86;19.78;94850.94;5048744;28;20220;-65
2021/05/11 14:35:42;;;;;;;3.73;1.90;;;;;;;29.90;19.77;94849.03;5049077;28;20214;-65
2021/05/11 14:38:09;;;;;;;3.47;1.47;;;;;;;29.73;19.31;94847.00;5048490;28;20196;-64
2021/05/11 14:40:36;;;;;;;7.17;1.80;;;;;;;29.97;19.63;94854.47;5067907;28;20192;-64
2021/05/11 14:43:03;;;;;;;5.93;3.00;;;;;;;30.08;19.57;94844.47;5065121;28;20196;-66
2021/05/11 14:45:30;;;;;;;4.93;1.50;;;;;;;30.10;20.21;94844.88;5072128;28;20192;-64
2021/05/11 14:47:57;;;;;;;3.97;1.30;;;;;;;29.39;19.81;94832.91;5056190;28;20674;-66
2021/05/11 14:50:25;;;;;;;7.07;1.43;;;;;;;29.17;19.42;94835.81;5069408;28;20362;-65
2021/05/11 14:52:56;;;;;;;5.17;1.53;;;;;;;29.67;19.55;94837.69;5062187;28;20521;-65
2021/05/11 14:55:25;;;;;;;7.10;1.53;;;;;;;29.83;19.35;94840.91;5057627;28;20307;-67
2021/05/11 14:57:55;;;;;;;4.23;1.87;;;;;;;28.88;19.21;94835.56;5061117;28;20188;-63
2021/05/11 15:00:25;;;;;;;4.00;1.20;;;;;;;29.40;19.67;94829.03;5057052;28;20200;-64
2021/05/11 15:02:52;;;;;;;246.40;221.17;;;;;;;29.79;22.25;94832.78;5051921;28;20723;-65
2021/05/11 15:05:19;;;;;;;16.10;14.47;;;;;;;29.61;21.14;94823.78;5058065;28;20274;-65
2021/05/11 15:07:49;;;;;;;10.77;3.23;;;;;;;29.82;20.59;94828.53;5052366;28;20250;-66
2021/05/11 15:10:17;;;;;;;4.90;1.60;;;;;;;29.01;20.18;94824.47;5067799;28;20193;-61
2021/05/11 15:12:45;;;;;;;6.37;1.67;;;;;;;29.01;20.17;94821.78;5066598;28;20199;-64
2021/05/11 15:15:17;;;;;;;8.33;2.00;;;;;;;29.02;20.79;94821.41;5077185;28;20192;-64
2021/05/11 15:20:13;;;;;;;3.93;1.70;;;;;;;29.03;20.52;94814.09;5057900;28;20219;-64
2021/05/11 15:23:01;;;;;;;4.90;1.50;;;;;;;28.97;21.39;94810.97;5052058;28;20196;-64
2021/05/11 15:25:28;;;;;;;6.67;1.70;;;;;;;28.75;21.06;94810.00;5058693;28;20202;-68
2021/05/11 15:27:55;;;;;;;13.30;2.37;;;;;;;29.04;22.29;94815.63;5051217;28;20224;-67
2021/05/11 15:30:27;;;;;;;5.83;1.87;;;;;;;29.07;21.55;94817.59;5056986;28;20294;-64
2021/05/11 15:32:56;;;;;;;6.73;2.00;;;;;;;29.04;22.06;94821.03;5071855;28;20565;-65
2021/05/11 15:35:34;;;;;;;2.93;1.73;;;;;;;29.22;22.89;94805.75;5073511;28;20223;-63
2021/05/11 15:38:04;;;;;;;3.83;1.50;;;;;;;28.99;21.87;94809.41;5052550;28;20228;-65
2021/05/11 15:40:36;;;;;;;3.63;1.77;;;;;;;29.01;22.93;94800.97;5065802;28;20226;-65
2021/05/11 15:43:05;;;;;;;11.17;2.37;;;;;;;28.76;22.23;94805.38;5059599;28;20200;-64
2021/05/11 15:45:32;;;;;;;7.50;1.57;;;;;;;29.05;21.74;94806.41;5054946;28;20238;-66
2021/05/11 15:48:04;;;;;;;4.70;1.57;;;;;;;28.54;21.32;94799.03;5068565;28;20694;-65
2021/05/11 15:50:33;;;;;;;2.80;1.17;;;;;;;28.25;21.50;94802.53;5051486;28;20942;-67
2021/05/11 15:53:04;;;;;;;4.37;1.43;;;;;;;28.42;21.02;94793.09;5048405;28;20231;-67
2021/05/11 15:55:32;;;;;;;7.03;1.63;;;;;;;28.34;21.12;94800.34;5047300;28;20273;-67
2021/05/11 15:58:00;;;;;;;6.70;2.20;;;;;;;28.59;21.68;94797.91;5057164;28;20192;-65
2021/05/11 16:00:27;;;;;;;8.47;1.70;;;;;;;28.60;22.15;94794.06;5068771;28;20294;-65
2021/05/11 16:03:00;;;;;;;7.93;1.67;;;;;;;28.48;21.80;94789.72;5059695;28;20378;-66
2021/05/11 16:05:28;;;;;;;4.87;1.77;;;;;;;28.29;21.82;94795.28;5056445;28;20276;-66
2021/05/11 16:07:57;;;;;;;3.30;1.80;;;;;;;27.68;22.16;94794.94;5052666;28;20203;-66
2021/05/11 16:10:26;;;;;;;5.27;2.17;;;;;;;27.84;22.52;94795.53;5053392;28;20207;-66
2021/05/11 16:12:53;;;;;;;7.03;1.60;;;;;;;27.57;22.23;94789.41;5050759;28;20291;-64
2021/05/11 16:15:21;;;;;;;3.47;1.87;;;;;;;27.59;22.70;94797.13;5068624;28;20219;-65
2021/05/11 16:17:49;;;;;;;5.70;2.03;;;;;;;27.24;22.81;94797.38;5055609;28;20275;-69
2021/05/11 16:20:16;;;;;;;6.03;2.00;;;;;;;27.13;23.42;94801.84;5063648;28;20218;-70